Weather forecast for Kursk, towing flights (Курск)

Russia, 209 m
N51.642, E36.228


Sounding

Red line — air temperature ˚C.
Blue line — thermal bubble temperature ˚C.
Green line — dew point temperature ˚C.
Wind speed is in meters per second.

Table forecast

GFS 0.25˚ model

temp. wind gust humid. clouds prec. press. hpbl
Fri19 00:00 14 172.0 s 2 2 70 0 0.0 1022 45
03:00 13 177.0 s 2 3 72 0 0.0 1022 51
06:00 12 174.0 s 2 3 69 0 0.0 1020 56
09:00 13 175.0 s 2 3 60 0 0.0 1020 137
12:00 18 187.0 s 3 4 43 0 0.0 1019 440
15:00 19 196.0 ssw 3 4 40 4 0.0 1018 701
18:00 16 210.0 ssw 2 2 53 63 0.0 1017 40
21:00 14 239.0 wsw 1 2 61 44 0.0 1017 25
 
Sat20 00:00 12 290.0 wnw 1 1 65 33 0.0 1017 23
03:00 12 360.0 n 2 2 70 47 0.0 1017 44
06:00 11 24.0 nne 2 4 81 100 0.0 1017 101
09:00 12 39.0 ne 3 6 86 100 0.0 1018 272
12:00 14 40.0 ne 4 6 80 100 0.0 1018 462
15:00 12 42.0 ne 4 6 82 100 0.1 1018 533
18:00 12 52.0 ne 3 6 80 100 0.1 1018 548
21:00 10 52.0 ne 3 7 80 94 0.1 1019 296
 
Sun21 00:00 9 58.0 ene 3 8 69 78 0.0 1019 264
03:00 8 58.0 ene 4 7 66 71 0.0 1019 248
06:00 8 59.0 ene 4 7 68 96 0.0 1019 275
09:00 8 63.0 ene 4 8 69 98 0.0 1020 301
12:00 11 58.0 ene 4 7 62 98 0.0 1020 435
15:00 13 59.0 ene 5 7 58 71 0.0 1020 630
18:00 10 53.0 ne 4 9 65 1 0.0 1021 450
21:00 9 63.0 ene 4 10 69 1 0.0 1022 366
 
Mon22 00:00 8 48.0 ne 4 8 75 0 0.0 1022 288
03:00 7 45.0 ne 4 9 81 1 0.0 1022 284
06:00 6 48.0 ne 4 8 87 0 0.0 1022 279
09:00 7 62.0 ene 4 7 85 10 0.0 1022 339
12:00 10 80.0 e 4 6 79 62 0.0 1021 531
15:00 11 70.0 ene 3 5 78 77 0.1 1020 467
18:00 10 67.0 ene 3 6 85 99 0.4 1019 325
21:00 10 81.0 e 3 7 89 99 0.9 1018 311
 
Tue23 00:00 10 125.0 se 3 6 90 100 0.8 1016 425
03:00 9 121.0 ese 3 5 91 100 2.5 1014 348
06:00 9 128.0 se 2 3 92 100 1.5 1013 273
09:00 9 184.0 s 1 2 90 99 1.6 1012 228
12:00 11 268.0 w 2 3 82 92 0.1 1012 427
15:00 11 282.0 wnw 3 5 81 93 0.1 1012 538
18:00 10 280.0 w 3 5 72 83 0.0 1013 538
21:00 7 274.0 w 2 3 75 46 0.0 1012 108
 

0.012 s